Time;durP1;ratioP1;P1;durP2;ratioP2;P2;SDS_P1;SDS_P2;PMS_P1;PMS_P2;Temp;Humidity;BMP_temperature;BMP_pressure;BME280_temperature;BME280_humidity;BME280_pressure;Samples;Min_cycle;Max_cycle;Signal;HPM_P1;HPM_P2
2022/12/30 00:00:50;;;;;;;94.60;38.83;;;;;;;-141.97;100.00;47782.41;5053530;28;20614;-82
2022/12/30 00:03:16;;;;;;;101.70;40.30;;;;;;;-141.97;100.00;47830.47;5053660;28;20162;-82
2022/12/30 00:05:42;;;;;;;91.17;33.40;;;;;;;-141.97;100.00;47815.09;5053644;28;20232;-82
2022/12/30 00:08:45;;;;;;;94.53;37.40;;;;;;;-141.97;100.00;47805.47;5053497;28;20600;-81
2022/12/30 00:10:56;;;;;;;97.63;38.67;;;;;;;-141.97;100.00;47792.03;5053486;28;20408;-82
2022/12/30 00:33:58;;;;;;;114.53;41.83;;;;;;;-141.97;100.00;47811.25;4992333;28;20414;-83
2022/12/30 00:36:25;;;;;;;135.77;53.67;;;;;;;-141.97;100.00;47788.19;4991715;28;20460;-82
2022/12/30 00:38:51;;;;;;;147.43;60.10;;;;;;;-141.97;100.00;47820.84;4991533;28;20928;-82
2022/12/30 00:44:00;;;;;;;124.37;48.90;;;;;;;-141.97;100.00;47807.41;4991773;28;20699;-82
2022/12/30 00:46:25;;;;;;;128.20;48.80;;;;;;;-141.97;100.00;47788.19;4991488;28;20462;-82
2022/12/30 00:57:04;;;;;;;135.73;53.23;;;;;;;-141.97;100.00;47761.25;5033090;28;20480;-82
2022/12/30 00:59:29;;;;;;;135.83;51.60;;;;;;;-141.97;100.00;47807.41;5032935;28;20868;-83
2022/12/30 01:01:55;;;;;;;134.33;50.73;;;;;;;-141.97;100.00;47793.94;5032105;28;20201;-82
2022/12/30 01:04:20;;;;;;;123.97;49.53;;;;;;;-141.97;100.00;47801.63;5033147;28;20176;-82
2022/12/30 01:06:46;;;;;;;117.23;47.73;;;;;;;-141.97;100.00;47815.09;5032750;28;20232;-82
2022/12/30 01:09:11;;;;;;;121.57;49.23;;;;;;;-141.97;100.00;47838.16;5032913;28;20224;-83
2022/12/30 01:11:36;;;;;;;116.40;49.17;;;;;;;-141.97;100.00;47786.25;5049327;28;20166;-82
2022/12/30 01:14:02;;;;;;;122.50;49.43;;;;;;;-141.97;100.00;47822.78;5052570;28;20171;-83
2022/12/30 01:16:29;;;;;;;124.93;51.73;;;;;;;-141.97;100.00;47807.41;5057278;28;20170;-82
2022/12/30 01:18:54;;;;;;;116.97;51.30;;;;;;;-141.97;100.00;47795.88;5057312;28;20336;-82
2022/12/30 01:21:20;;;;;;;117.73;48.07;;;;;;;-141.97;100.00;47805.47;5045856;28;20885;-83
2022/12/30 01:23:45;;;;;;;112.50;45.80;;;;;;;-141.97;100.00;47803.56;5034557;28;20169;-82
2022/12/30 01:26:10;;;;;;;115.47;50.07;;;;;;;-141.97;100.00;47792.03;5035090;28;20285;-82
2022/12/30 01:28:37;;;;;;;114.23;46.67;;;;;;;-141.97;100.00;47818.94;5034496;28;20168;-82
2022/12/30 01:31:07;;;;;;;109.83;47.07;;;;;;;-141.97;100.00;47722.81;5040411;28;20169;-82
2022/12/30 01:33:33;;;;;;;111.10;46.10;;;;;;;-141.97;100.00;47803.56;5046622;28;20420;-82
2022/12/30 01:35:59;;;;;;;104.27;43.63;;;;;;;-141.97;100.00;47768.94;5054455;28;20396;-83
2022/12/30 01:38:24;;;;;;;104.10;42.87;;;;;;;-141.97;100.00;47849.69;5062474;28;20240;-83
2022/12/30 01:40:50;;;;;;;98.00;40.03;;;;;;;-141.97;100.00;47845.84;5057357;28;20244;-83
2022/12/30 01:43:17;;;;;;;102.97;40.60;;;;;;;-141.97;100.00;47718.97;5054439;28;20173;-83
2022/12/30 01:45:50;;;;;;;91.60;39.90;;;;;;;-141.97;100.00;47730.50;5054997;28;20196;-83
2022/12/30 01:48:25;;;;;;;96.07;40.50;;;;;;;-141.97;100.00;47788.19;5053742;28;20463;-82
2022/12/30 01:50:57;;;;;;;99.10;40.57;;;;;;;-141.97;100.00;47792.03;5034966;28;20411;-82
2022/12/30 01:53:28;;;;;;;104.23;41.83;;;;;;;-141.97;100.00;47799.72;5052102;28;20399;-81
2022/12/30 01:56:00;;;;;;;97.20;38.73;;;;;;;-141.97;100.00;47772.78;5052438;28;20707;-82
2022/12/30 01:58:30;;;;;;;92.97;37.63;;;;;;;-141.97;100.00;47792.03;5051729;28;20971;-82
2022/12/30 02:00:55;;;;;;;93.33;37.83;;;;;;;-141.97;100.00;47813.16;5051892;28;20399;-82
2022/12/30 02:03:22;;;;;;;87.87;35.77;;;;;;;-141.97;100.00;47763.19;5051751;28;20423;-82
2022/12/30 02:05:49;;;;;;;92.67;38.57;;;;;;;-141.97;100.00;47776.63;5051585;28;20268;-82
2022/12/30 02:08:17;;;;;;;91.47;36.77;;;;;;;-141.97;100.00;47786.25;5051729;28;20404;-82
2022/12/30 02:10:46;;;;;;;93.73;37.07;;;;;;;-141.97;100.00;47736.28;5051711;28;20408;-83
2022/12/30 02:13:14;;;;;;;95.47;39.10;;;;;;;-141.97;100.00;47828.53;5051714;28;20411;-83
2022/12/30 02:15:59;;;;;;;96.27;38.97;;;;;;;-141.97;100.00;47803.56;5051559;28;20396;-83
2022/12/30 02:18:51;;;;;;;91.23;37.87;;;;;;;-141.97;100.00;47822.78;5051340;28;20909;-83
2022/12/30 02:21:34;;;;;;;89.23;36.30;;;;;;;-141.97;100.00;47818.94;5051333;28;20422;-83
2022/12/30 02:24:08;;;;;;;96.63;38.10;;;;;;;-141.97;100.00;47803.56;5051796;28;20465;-83
2022/12/30 02:26:47;;;;;;;105.00;38.43;;;;;;;-141.97;100.00;47780.47;5051363;28;20439;-83
2022/12/30 02:29:25;;;;;;;97.23;37.43;;;;;;;-141.97;100.00;47780.47;5051893;28;20944;-82
2022/12/30 02:32:11;;;;;;;96.33;39.13;;;;;;;-141.97;100.00;47747.81;5051463;28;20400;-83
2022/12/30 02:34:52;;;;;;;95.27;37.97;;;;;;;-141.97;100.00;47761.25;5051097;28;20432;-82
2022/12/30 02:37:28;;;;;;;98.43;40.33;;;;;;;-141.97;100.00;47782.41;5050768;28;20533;-82
2022/12/30 02:40:04;;;;;;;96.53;37.80;;;;;;;-141.97;100.00;47795.88;5050557;28;20435;-83
2022/12/30 02:45:44;;;;;;;89.83;36.03;;;;;;;-141.97;100.00;47799.72;5050134;28;20524;-81
2022/12/30 02:48:21;;;;;;;93.73;37.43;;;;;;;-141.97;100.00;47795.88;5050239;28;20404;-82
2022/12/30 02:53:36;;;;;;;92.70;35.23;;;;;;;-141.97;100.00;47790.09;5053614;28;20937;-81
2022/12/30 02:56:02;;;;;;;91.47;35.90;;;;;;;-141.97;100.00;47815.09;5053684;28;20910;-82
2022/12/30 02:58:31;;;;;;;93.70;37.57;;;;;;;-141.97;100.00;47784.34;5053364;28;20487;-82
2022/12/30 03:04:20;;;;;;;93.60;35.67;;;;;;;-141.97;100.00;47759.34;5053466;28;20740;-82
2022/12/30 03:07:10;;;;;;;169.43;59.23;;;;;;;-141.97;100.00;47801.63;5053880;28;20467;-83
2022/12/30 03:13:08;;;;;;;226.23;78.93;;;;;;;-141.97;100.00;47805.47;4972946;28;20522;-82
2022/12/30 03:15:44;;;;;;;176.50;67.27;;;;;;;-141.97;100.00;47805.47;4972816;28;20931;-84
2022/12/30 03:18:11;;;;;;;135.73;54.23;;;;;;;-141.97;100.00;47774.72;4972918;28;20903;-83
2022/12/30 03:20:39;;;;;;;124.60;49.57;;;;;;;-141.97;100.00;47866.97;4956658;28;20423;-82
2022/12/30 03:28:40;;;;;;;114.07;46.67;;;;;;;-141.97;100.00;47780.47;4979809;28;20430;-81
2022/12/30 03:31:10;;;;;;;112.40;45.17;;;;;;;-141.97;100.00;47828.53;4975479;28;20855;-82
2022/12/30 03:33:36;;;;;;;115.97;48.30;;;;;;;-141.97;100.00;47803.56;4974197;28;20410;-84
2022/12/30 03:36:28;;;;;;;132.73;50.07;;;;;;;-141.97;100.00;47763.19;4972396;28;20427;-81
2022/12/30 03:39:03;;;;;;;120.47;46.77;;;;;;;-141.97;100.00;47753.56;4914857;28;1216203;-83
2022/12/30 03:41:30;;;;;;;117.67;44.83;;;;;;;-141.97;100.00;47788.19;4956980;28;20183;-82
2022/12/30 03:43:56;;;;;;;124.77;46.60;;;;;;;-141.97;100.00;47795.88;4973253;28;20732;-82
2022/12/30 03:46:27;;;;;;;104.70;40.07;;;;;;;-141.97;100.00;47734.34;4973455;28;20462;-82
2022/12/30 03:48:53;;;;;;;99.90;39.00;;;;;;;-141.97;100.00;47793.94;4983984;28;20270;-82
2022/12/30 03:51:18;;;;;;;93.67;38.20;;;;;;;-141.97;100.00;47788.19;4994991;28;20969;-82
2022/12/30 03:53:44;;;;;;;101.10;39.73;;;;;;;-141.97;100.00;47861.22;4994753;28;20626;-82
2022/12/30 03:56:09;;;;;;;89.73;37.10;;;;;;;-141.97;100.00;47799.72;4994554;28;20172;-82
2022/12/30 03:58:34;;;;;;;96.53;37.37;;;;;;;-141.97;100.00;47784.34;4994295;28;20670;-82
2022/12/30 04:01:00;;;;;;;93.87;37.43;;;;;;;-141.97;100.00;47861.22;4994101;28;20163;-82
2022/12/30 04:03:25;;;;;;;97.30;38.77;;;;;;;-141.97;100.00;47815.09;4994641;28;20613;-82
2022/12/30 04:05:55;;;;;;;101.57;37.77;;;;;;;-141.97;100.00;47776.63;4994798;28;20270;-82
2022/12/30 04:08:21;;;;;;;101.47;38.93;;;;;;;-141.97;100.00;47830.47;4994723;28;20223;-82
2022/12/30 04:10:47;;;;;;;101.37;39.53;;;;;;;-141.97;100.00;47720.91;4994205;28;20946;-83
2022/12/30 04:13:12;;;;;;;101.67;39.47;;;;;;;-141.97;100.00;47711.28;4993041;28;20434;-82
2022/12/30 04:15:38;;;;;;;102.00;39.57;;;;;;;-141.97;100.00;47826.63;4994402;28;20226;-82
2022/12/30 04:18:04;;;;;;;96.60;38.50;;;;;;;-141.97;100.00;47793.94;4994086;28;20250;-83
2022/12/30 04:20:29;;;;;;;101.60;40.50;;;;;;;-141.97;100.00;47811.25;4993023;28;20266;-82
2022/12/30 04:22:58;;;;;;;102.63;40.13;;;;;;;-141.97;100.00;47809.31;4994374;28;20190;-82
2022/12/30 04:25:25;;;;;;;105.50;40.00;;;;;;;-141.97;100.00;47780.47;4994395;28;20191;-82
2022/12/30 04:27:50;;;;;;;100.07;40.70;;;;;;;-141.97;100.00;47803.56;4994090;28;20403;-82
2022/12/30 04:30:16;;;;;;;99.57;40.23;;;;;;;-141.97;100.00;47809.31;4993985;28;20399;-82
2022/12/30 04:32:41;;;;;;;102.77;39.77;;;;;;;-141.97;100.00;47803.56;4994306;28;20584;-82
2022/12/30 04:35:07;;;;;;;104.93;41.20;;;;;;;-141.97;100.00;47720.91;4994091;28;20170;-83
2022/12/30 04:37:32;;;;;;;113.67;44.73;;;;;;;-141.97;100.00;47811.25;4998688;28;20280;-83
2022/12/30 04:39:58;;;;;;;139.03;51.53;;;;;;;-141.97;100.00;47818.94;5013452;28;20206;-82
2022/12/30 04:42:23;;;;;;;169.03;58.77;;;;;;;-141.97;100.00;47780.47;5013310;28;20162;-82
2022/12/30 04:44:48;;;;;;;155.67;59.90;;;;;;;-141.97;100.00;47805.47;5011995;28;20564;-82
2022/12/30 04:47:14;;;;;;;149.17;56.73;;;;;;;-141.97;100.00;47768.94;5013182;28;20194;-83
2022/12/30 04:49:39;;;;;;;140.60;53.73;;;;;;;-141.97;100.00;47776.63;5013403;28;20612;-82
2022/12/30 04:52:04;;;;;;;168.23;63.03;;;;;;;-141.97;100.00;47818.94;5013247;28;20205;-83
2022/12/30 04:54:30;;;;;;;210.93;73.77;;;;;;;-141.97;100.00;47801.63;5013044;28;20555;-82
2022/12/30 04:56:55;;;;;;;183.63;67.83;;;;;;;-141.97;100.00;47817.00;5013645;28;20170;-82
2022/12/30 04:59:21;;;;;;;191.90;70.60;;;;;;;-141.97;100.00;47807.41;5011776;28;20546;-82
2022/12/30 05:01:47;;;;;;;170.20;64.53;;;;;;;-141.97;100.00;47753.56;5012971;28;20170;-82
2022/12/30 05:04:12;;;;;;;165.03;60.87;;;;;;;-141.97;100.00;47834.31;5012699;28;20171;-83
2022/12/30 05:06:38;;;;;;;142.83;51.80;;;;;;;-141.97;100.00;47742.03;5011320;28;21001;-83
2022/12/30 05:09:03;;;;;;;117.13;44.50;;;;;;;-141.97;100.00;47738.19;5011521;28;20178;-83
2022/12/30 05:11:29;;;;;;;121.77;47.33;;;;;;;-141.97;100.00;47780.47;5012993;28;20177;-82
2022/12/30 05:13:54;;;;;;;183.20;57.87;;;;;;;-141.97;100.00;47788.19;5018593;28;20202;-82
2022/12/30 05:16:19;;;;;;;262.20;90.30;;;;;;;-141.97;100.00;47726.66;5022866;28;20159;-83
2022/12/30 05:18:45;;;;;;;566.60;217.20;;;;;;;-141.97;100.00;47742.03;5034018;28;20544;-83
2022/12/30 05:21:10;;;;;;;463.97;160.60;;;;;;;-141.97;100.00;47799.72;5034792;28;20167;-82
2022/12/30 05:26:20;;;;;;;516.93;200.23;;;;;;;-141.97;100.00;47784.34;5027043;28;20801;-83
2022/12/30 05:28:47;;;;;;;422.87;160.67;;;;;;;-141.97;100.00;47822.78;5014585;28;20504;-83
2022/12/30 05:31:14;;;;;;;410.70;147.27;;;;;;;-141.97;100.00;47780.47;5013438;28;20163;-83
2022/12/30 05:33:39;;;;;;;339.50;124.17;;;;;;;-141.97;100.00;47780.47;5021437;28;20398;-83
2022/12/30 05:36:05;;;;;;;190.57;73.57;;;;;;;-141.97;100.00;47813.16;5025487;28;20405;-83
2022/12/30 05:38:31;;;;;;;125.87;48.53;;;;;;;-141.97;100.00;47784.34;5034556;28;20237;-83
2022/12/30 05:40:56;;;;;;;112.77;42.60;;;;;;;-141.97;100.00;47799.72;5031691;28;20410;-83
2022/12/30 05:43:22;;;;;;;120.73;45.50;;;;;;;-141.97;100.00;47809.31;5013044;28;20277;-83
2022/12/30 05:45:47;;;;;;;105.20;43.43;;;;;;;-141.97;100.00;47799.72;5011912;28;20201;-83
2022/12/30 05:48:12;;;;;;;100.53;41.23;;;;;;;-141.97;100.00;47818.94;5011892;28;20269;-83
2022/12/30 05:50:39;;;;;;;105.97;37.93;;;;;;;-141.97;100.00;47768.94;5013653;28;20167;-82
2022/12/30 05:53:05;;;;;;;95.90;37.30;;;;;;;-141.97;100.00;47788.19;5012844;28;20207;-83
2022/12/30 05:55:30;;;;;;;109.43;40.10;;;;;;;-141.97;100.00;47822.78;5013086;28;20398;-83
2022/12/30 05:57:56;;;;;;;93.60;35.23;;;;;;;-141.97;100.00;47784.34;5012986;28;20174;-83
2022/12/30 06:00:21;;;;;;;86.60;34.10;;;;;;;-141.97;100.00;47851.59;5013379;28;20215;-82
2022/12/30 06:02:46;;;;;;;93.13;37.37;;;;;;;-141.97;100.00;47834.31;5012391;28;20642;-82
2022/12/30 06:05:12;;;;;;;103.90;40.77;;;;;;;-141.97;100.00;47788.19;5011915;28;20227;-83
2022/12/30 06:07:37;;;;;;;111.87;47.63;;;;;;;-141.97;100.00;47786.25;5011954;28;20175;-82
2022/12/30 06:10:03;;;;;;;103.70;42.47;;;;;;;-141.97;100.00;47803.56;5027324;28;20209;-83
2022/12/30 06:12:28;;;;;;;95.63;38.33;;;;;;;-141.97;100.00;47815.09;5011854;28;20193;-83
2022/12/30 06:14:54;;;;;;;95.83;34.70;;;;;;;-141.97;100.00;47811.25;5011431;28;20167;-81
2022/12/30 06:17:19;;;;;;;84.80;34.03;;;;;;;-141.97;100.00;47797.78;5011841;28;20558;-81
2022/12/30 06:19:44;;;;;;;95.10;37.90;;;;;;;-141.97;100.00;47807.41;5011702;28;20167;-83
2022/12/30 06:22:10;;;;;;;95.47;38.17;;;;;;;-141.97;100.00;47743.97;5011555;28;20297;-83
2022/12/30 06:24:35;;;;;;;98.93;37.63;;;;;;;-141.97;100.00;47830.47;5010066;28;20562;-82
2022/12/30 06:27:01;;;;;;;96.57;39.67;;;;;;;-141.97;100.00;47807.41;5011479;28;20273;-83
2022/12/30 06:29:26;;;;;;;109.70;44.57;;;;;;;-141.97;100.00;47834.31;5011642;28;20518;-82
2022/12/30 06:31:51;;;;;;;101.17;40.07;;;;;;;-141.97;100.00;47797.78;5011119;28;20171;-82
2022/12/30 06:34:17;;;;;;;109.30;42.03;;;;;;;-141.97;100.00;47795.88;5011451;28;20209;-82
2022/12/30 06:36:42;;;;;;;96.63;37.60;;;;;;;-141.97;100.00;47834.31;5011499;28;20190;-82
2022/12/30 06:39:08;;;;;;;104.10;40.40;;;;;;;-141.97;96.58;47763.19;5011277;28;20229;-83
2022/12/30 06:41:33;;;;;;;110.17;43.00;;;;;;;-141.97;93.23;47784.34;5010358;28;20559;-82
2022/12/30 06:43:58;;;;;;;149.13;56.73;;;;;;;-141.97;91.37;47824.69;5011451;28;20250;-82
2022/12/30 06:46:24;;;;;;;113.63;41.17;;;;;;;-141.97;92.62;47828.53;5011121;28;20556;-83
2022/12/30 06:48:49;;;;;;;101.77;36.93;;;;;;;-141.97;93.11;47799.72;5011324;28;20237;-82
2022/12/30 06:51:14;;;;;;;124.67;44.73;;;;;;;-141.97;93.67;47747.81;5011213;28;20167;-83
2022/12/30 06:53:40;;;;;;;110.17;38.23;;;;;;;-141.97;93.66;47745.88;5012128;28;20199;-81
2022/12/30 06:56:06;;;;;;;87.97;34.33;;;;;;;-141.97;93.67;47817.00;5010202;28;20189;-82
2022/12/30 06:58:32;;;;;;;103.17;41.23;;;;;;;-141.97;94.41;47826.63;5011298;28;20239;-82
2022/12/30 07:00:57;;;;;;;89.67;36.63;;;;;;;-141.97;95.55;47768.94;5010090;28;20524;-81
2022/12/30 07:03:23;;;;;;;110.43;40.23;;;;;;;-141.97;91.54;47807.41;5016098;28;20206;-82
2022/12/30 07:05:48;;;;;;;96.17;39.87;;;;;;;-141.97;75.96;47822.78;5012606;28;20209;-82
2022/12/30 07:08:14;;;;;;;80.30;33.63;;;;;;;-141.97;67.77;47834.31;5008134;28;20260;-83
2022/12/30 07:10:39;;;;;;;73.87;30.83;;;;;;;-141.97;64.78;47818.94;5010855;28;20185;-84
2022/12/30 07:13:04;;;;;;;70.47;31.03;;;;;;;-141.97;62.61;47824.69;5008663;28;20197;-83
2022/12/30 07:15:30;;;;;;;62.00;29.73;;;;;;;-141.97;60.39;47838.16;5008494;28;20282;-83
2022/12/30 07:17:55;;;;;;;62.53;28.30;;;;;;;-141.97;59.95;47747.81;5010090;28;20190;-83
2022/12/30 07:20:21;;;;;;;65.87;28.30;;;;;;;-141.97;58.74;47807.41;5009660;28;20178;-83
2022/12/30 07:22:46;;;;;;;62.90;26.80;;;;;;;-141.97;59.01;47830.47;5009734;28;20242;-83
2022/12/30 07:25:12;;;;;;;66.37;28.27;;;;;;;-141.97;58.52;47855.44;5010092;28;20611;-81
2022/12/30 07:27:37;;;;;;;65.63;30.83;;;;;;;-141.97;58.17;47863.13;5009474;28;20234;-84
2022/12/30 07:30:04;;;;;;;60.67;28.63;;;;;;;-141.97;58.91;47797.78;5010434;28;20277;-82
2022/12/30 07:32:29;;;;;;;57.93;25.17;;;;;;;-141.97;62.22;47857.38;5010693;28;20257;-81
2022/12/30 07:34:55;;;;;;;67.13;29.10;;;;;;;-141.97;68.22;47830.47;5010860;28;20457;-82
2022/12/30 07:37:20;;;;;;;72.20;30.40;;;;;;;-141.97;72.09;47788.19;5015679;28;20237;-83
2022/12/30 07:39:45;;;;;;;68.60;29.60;;;;;;;-141.97;74.08;47811.25;5034680;28;20170;-81
2022/12/30 07:42:11;;;;;;;70.33;28.47;;;;;;;-141.97;75.19;47815.09;5034375;28;20170;-82
2022/12/30 07:44:37;;;;;;;72.37;31.70;;;;;;;-141.97;76.11;47667.06;5034022;28;20168;-81
2022/12/30 07:47:04;;;;;;;72.23;30.70;;;;;;;-141.97;76.68;47715.13;5032667;28;20288;-81
2022/12/30 07:49:29;;;;;;;67.73;30.17;;;;;;;-141.97;77.15;47859.28;5033855;28;20404;-81
2022/12/30 07:51:54;;;;;;;65.83;29.17;;;;;;;-141.97;76.75;47776.63;5033923;28;20400;-81
2022/12/30 07:54:20;;;;;;;81.00;38.03;;;;;;;-141.97;77.02;47832.38;5033935;28;20173;-82
2022/12/30 07:56:45;;;;;;;92.30;39.27;;;;;;;-141.97;76.46;47813.16;5033908;28;20185;-81
2022/12/30 07:59:11;;;;;;;77.63;35.33;;;;;;;-141.97;75.79;47795.88;5034197;28;20158;-81
2022/12/30 08:01:37;;;;;;;146.80;55.40;;;;;;;-141.97;75.36;47820.84;5033473;28;20547;-81
2022/12/30 08:04:04;;;;;;;110.37;50.10;;;;;;;-141.97;75.15;47822.78;5033723;28;20415;-82
2022/12/30 08:06:29;;;;;;;139.00;53.10;;;;;;;-141.97;75.35;47828.53;5033829;28;20340;-81
2022/12/30 08:08:54;;;;;;;86.43;38.73;;;;;;;-141.97;74.69;47722.81;5015980;28;20413;-81
2022/12/30 08:11:20;;;;;;;97.53;42.40;;;;;;;-141.97;73.91;47855.44;5033291;28;20189;-81
2022/12/30 08:13:45;;;;;;;82.83;36.83;;;;;;;-141.97;72.88;47799.72;5033873;28;20587;-81
2022/12/30 08:16:15;;;;;;;86.13;39.93;;;;;;;-141.97;72.88;47890.06;5034315;28;20162;-81
2022/12/30 08:18:42;;;;;;;79.83;38.97;;;;;;;-141.97;71.86;47830.47;5035831;28;20174;-81
2022/12/30 08:21:11;;;;;;;139.97;60.00;;;;;;;-141.97;71.02;47815.09;5035981;28;20921;-81
2022/12/30 08:23:37;;;;;;;108.63;50.30;;;;;;;-141.97;70.60;47772.78;5035927;28;20543;-81
2022/12/30 08:26:08;;;;;;;91.10;44.97;;;;;;;-141.97;69.12;47790.09;5034876;28;20479;-81
2022/12/30 08:28:34;;;;;;;100.30;45.87;;;;;;;-141.97;68.91;47826.63;5035580;28;20936;-82
2022/12/30 08:31:08;;;;;;;102.83;47.57;;;;;;;-141.97;68.69;47770.88;5035237;28;20404;-82
2022/12/30 08:33:34;;;;;;;92.53;43.93;;;;;;;-141.97;68.27;47815.09;5035436;28;20197;-82
2022/12/30 08:36:04;;;;;;;85.03;42.00;;;;;;;-141.97;67.28;47797.78;5033761;28;20163;-82
2022/12/30 08:38:30;;;;;;;85.70;42.03;;;;;;;-141.97;66.77;47836.22;5033280;28;20229;-84
2022/12/30 08:41:13;;;;;;;88.53;40.83;;;;;;;-141.97;66.54;47792.03;5033419;28;20596;-84
2022/12/30 08:43:38;;;;;;;87.83;41.07;;;;;;;-141.97;66.57;47776.63;5033592;28;20623;-84
2022/12/30 08:46:04;;;;;;;83.90;41.47;;;;;;;-141.97;65.97;47815.09;5033157;28;20207;-83
2022/12/30 08:48:30;;;;;;;96.67;43.67;;;;;;;-141.97;65.24;47820.84;5032095;28;20568;-84
2022/12/30 08:50:56;;;;;;;110.33;49.63;;;;;;;-141.97;64.37;47793.94;5033197;28;20240;-83
2022/12/30 08:53:22;;;;;;;145.47;71.90;;;;;;;-141.97;63.67;47784.34;5033001;28;20550;-83
2022/12/30 08:55:48;;;;;;;152.60;67.20;;;;;;;-141.97;63.51;47820.84;5032853;28;20177;-83
2022/12/30 08:58:13;;;;;;;318.37;152.43;;;;;;;-141.97;62.91;47895.81;5032801;28;20247;-83
2022/12/30 09:00:39;;;;;;;284.20;141.23;;;;;;;-141.97;63.08;47742.03;5030415;28;20181;-84
2022/12/30 09:03:04;;;;;;;288.40;145.70;;;;;;;-141.97;63.01;47803.56;5031935;28;20185;-84
2022/12/30 09:05:32;;;;;;;256.07;131.53;;;;;;;-141.97;63.39;47763.19;5029670;28;20194;-84
2022/12/30 09:07:58;;;;;;;238.40;119.93;;;;;;;-141.97;63.19;47784.34;5030200;28;20696;-84
2022/12/30 09:10:23;;;;;;;221.90;116.83;;;;;;;-141.97;62.81;47780.47;5032983;28;20243;-84
2022/12/30 09:12:48;;;;;;;132.43;68.70;;;;;;;-141.97;62.32;47738.19;5033932;28;20564;-82
2022/12/30 09:15:14;;;;;;;104.33;53.60;;;;;;;-141.97;62.78;47765.09;5034548;28;20194;-83
2022/12/30 09:17:39;;;;;;;90.07;48.33;;;;;;;-141.97;62.46;47866.97;5032504;28;20170;-80
2022/12/30 09:20:05;;;;;;;77.87;41.80;;;;;;;-141.97;61.85;47734.34;5034688;28;20166;-81
2022/12/30 09:22:31;;;;;;;92.50;41.97;;;;;;;-141.97;62.80;47799.72;5015946;28;20209;-80
2022/12/30 09:24:56;;;;;;;78.87;41.10;;;;;;;-141.97;63.42;47784.34;5032360;28;20694;-81
2022/12/30 09:27:22;;;;;;;76.57;37.67;;;;;;;-141.97;63.42;47818.94;5034654;28;20208;-81
2022/12/30 09:29:47;;;;;;;81.37;39.97;;;;;;;-141.97;62.82;47788.19;5039886;28;20650;-80
2022/12/30 09:32:12;;;;;;;92.67;44.87;;;;;;;-141.97;61.57;47805.47;5044348;28;20225;-80
2022/12/30 09:34:38;;;;;;;76.07;37.80;;;;;;;-141.97;61.77;47834.31;5056972;28;20185;-81
2022/12/30 09:37:03;;;;;;;75.03;37.70;;;;;;;-141.97;61.69;47809.31;5052722;28;20265;-82
2022/12/30 09:39:31;;;;;;;81.67;37.93;;;;;;;-141.97;60.69;47763.19;5037425;28;20147;-81
2022/12/30 09:45:15;;;;;;;90.87;45.17;;;;;;;-141.97;59.93;47732.44;5012943;28;20169;-81
2022/12/30 09:48:04;;;;;;;72.67;35.30;;;;;;;-141.97;59.08;47851.59;4990597;28;20191;-81
2022/12/30 09:50:48;;;;;;;64.07;32.43;;;;;;;-141.97;58.46;47866.97;4992522;28;20251;-81
2022/12/30 09:53:24;;;;;;;63.43;30.97;;;;;;;-141.97;58.09;47776.63;4981213;28;20629;-81
2022/12/30 09:56:02;;;;;;;60.60;29.70;;;;;;;-141.97;58.18;47776.63;5001986;28;20185;-81
2022/12/30 09:58:33;;;;;;;58.17;29.50;;;;;;;-141.97;57.96;47753.56;4999758;28;20198;-82
2022/12/30 10:01:21;;;;;;;58.47;28.80;;;;;;;-141.97;57.83;47761.25;5016122;28;20151;-81
2022/12/30 10:03:46;;;;;;;49.97;27.73;;;;;;;-141.97;58.24;47761.25;4993149;28;20172;-81
2022/12/30 10:06:33;;;;;;;50.73;27.53;;;;;;;-141.97;57.80;47759.34;4990483;28;20654;-81
2022/12/30 10:09:10;;;;;;;56.33;28.03;;;;;;;-141.97;57.18;47780.47;4974159;28;20171;-81
2022/12/30 10:11:56;;;;;;;56.00;27.50;;;;;;;-141.97;56.91;47765.09;4990406;28;20353;-81
2022/12/30 10:14:24;;;;;;;45.90;25.53;;;;;;;-141.97;56.81;47797.78;4990183;28;20201;-81
2022/12/30 10:17:00;;;;;;;46.13;25.37;;;;;;;-141.97;55.77;47842.00;4990160;28;20167;-81
2022/12/30 10:19:39;;;;;;;49.27;26.40;;;;;;;-141.97;55.38;47776.63;4990270;28;20170;-81
2022/12/30 10:22:14;;;;;;;46.10;26.50;;;;;;;-141.97;56.43;47759.34;4989861;28;20168;-81
2022/12/30 10:25:00;;;;;;;49.60;25.93;;;;;;;-141.97;56.00;47767.03;5028014;28;20190;-81
2022/12/30 10:27:39;;;;;;;47.30;25.53;;;;;;;-141.97;55.41;47767.03;5010467;28;20199;-81
2022/12/30 10:30:13;;;;;;;48.90;25.97;;;;;;;-141.97;55.23;47772.78;5011525;28;20154;-82
2022/12/30 10:32:50;;;;;;;50.97;25.00;;;;;;;-141.97;54.80;47801.63;5011708;28;20159;-81
2022/12/30 10:35:21;;;;;;;45.97;25.50;;;;;;;-141.97;55.37;47770.88;5011757;28;20298;-81
2022/12/30 10:37:49;;;;;;;48.27;28.13;;;;;;;-141.97;55.20;47765.09;5011414;28;20226;-81
2022/12/30 10:40:15;;;;;;;48.80;25.23;;;;;;;-141.97;56.34;47788.19;5011666;28;20166;-81
2022/12/30 10:43:10;;;;;;;47.40;24.83;;;;;;;-141.97;56.51;47772.78;5011608;28;20702;-81
2022/12/30 10:45:41;;;;;;;51.37;27.33;;;;;;;-141.97;56.22;47776.63;4970411;28;20243;-81
2022/12/30 10:48:36;;;;;;;68.53;33.83;;;;;;;-141.97;56.34;47728.59;4970510;28;20202;-81
2022/12/30 10:51:02;;;;;;;62.87;34.47;;;;;;;-141.97;56.71;47799.72;4954415;28;20691;-81
2022/12/30 10:53:30;;;;;;;64.23;35.73;;;;;;;-141.97;55.98;47734.34;4970579;28;20259;-81
2022/12/30 10:55:58;;;;;;;70.07;37.20;;;;;;;-141.97;56.88;47782.41;4970584;28;20184;-79
2022/12/30 10:58:33;;;;;;;76.37;37.83;;;;;;;-141.97;56.85;47813.16;4970170;28;20180;-81
2022/12/30 11:01:00;;;;;;;69.50;38.50;;;;;;;-141.97;56.50;47780.47;4970348;28;20168;-80
2022/12/30 11:03:35;;;;;;;70.27;35.87;;;;;;;-141.97;57.22;47707.44;4970167;28;20188;-80
2022/12/30 11:06:22;;;;;;;73.20;38.07;;;;;;;-141.97;56.90;47772.78;4970244;28;20196;-81
2022/12/30 11:08:47;;;;;;;58.60;33.83;;;;;;;-141.97;57.11;47792.03;4970100;28;20176;-80
2022/12/30 11:11:14;;;;;;;65.20;34.67;;;;;;;-141.97;56.78;47742.03;4970379;28;20190;-81
2022/12/30 11:16:30;;;;;;;59.03;30.13;;;;;;;-141.97;56.02;47797.78;4973712;28;20191;-81
2022/12/30 11:18:58;;;;;;;55.23;30.47;;;;;;;-141.97;55.65;47753.56;4973364;28;20226;-81
2022/12/30 11:21:30;;;;;;;54.83;29.37;;;;;;;-141.97;54.82;47776.63;4978087;28;20270;-81
2022/12/30 11:23:58;;;;;;;49.53;27.27;;;;;;;-141.97;55.58;47792.03;5021053;28;20209;-81
2022/12/30 11:26:27;;;;;;;52.33;27.93;;;;;;;-141.97;55.12;47765.09;5021651;28;20290;-80
2022/12/30 11:29:08;;;;;;;49.93;27.67;;;;;;;-141.97;54.74;47807.41;5014457;28;20253;-81
2022/12/30 11:31:42;;;;;;;53.47;28.67;;;;;;;-141.97;55.62;47763.19;5015043;28;20171;-80
2022/12/30 11:34:36;;;;;;;50.40;28.40;;;;;;;-141.97;56.36;47753.56;5039966;28;20185;-80
2022/12/30 11:37:33;;;;;;;50.10;28.60;;;;;;;-141.97;56.20;47807.41;5014203;28;20246;-82
2022/12/30 11:40:24;;;;;;;55.67;29.53;;;;;;;-141.97;55.64;47784.34;5016200;28;20163;-81
2022/12/30 11:43:09;;;;;;;57.37;29.63;;;;;;;-141.97;55.45;47745.88;5034232;28;20166;-81
2022/12/30 11:45:34;;;;;;;49.90;26.77;;;;;;;-141.97;54.71;47824.69;5033616;28;20229;-82
2022/12/30 11:48:00;;;;;;;48.43;27.77;;;;;;;-141.97;54.83;47765.09;5035692;28;20209;-81
2022/12/30 11:50:25;;;;;;;52.90;28.27;;;;;;;-141.97;54.84;47743.97;5034765;28;20243;-81
2022/12/30 11:53:01;;;;;;;52.13;27.77;;;;;;;-141.97;54.38;47768.94;5034328;28;20615;-81
2022/12/30 11:55:26;;;;;;;50.70;27.23;;;;;;;-141.97;54.06;47757.41;5034215;28;20161;-82
2022/12/30 11:57:56;;;;;;;53.97;29.03;;;;;;;-141.97;54.27;47792.03;5034090;28;20236;-81
2022/12/30 12:00:35;;;;;;;47.07;28.03;;;;;;;-141.97;54.98;47732.44;5034375;28;20250;-81